sensor_id;sensor_type;location;lat;lon;timestamp;pressure;altitude;pressure_sealevel;temperature;humidity
48792;BME280;34587;48.816;9.420;2023-04-05T04:15:31;99284.94;;;-2.32;79.61
48792;BME280;34587;48.816;9.420;2023-04-05T04:17:56;99286.63;;;-2.52;80.41
48792;BME280;34587;48.816;9.420;2023-04-05T04:20:22;99278.63;;;-2.42;79.93
48792;BME280;34587;48.816;9.420;2023-04-05T04:22:47;99278.50;;;-2.45;80.13
48792;BME280;34587;48.816;9.420;2023-04-05T04:25:14;99272.88;;;-2.57;80.23
48792;BME280;34587;48.816;9.420;2023-04-05T04:27:43;99287.34;;;-2.75;81.72
48792;BME280;34587;48.816;9.420;2023-04-05T04:30:10;99289.41;;;-2.86;82.21
48792;BME280;34587;48.816;9.420;2023-04-05T04:32:37;99293.75;;;-2.83;81.92
48792;BME280;34587;48.816;9.420;2023-04-05T04:35:22;99294.47;;;-2.86;81.79
48792;BME280;34587;48.816;9.420;2023-04-05T04:37:57;99292.88;;;-2.84;82.12
48792;BME280;34587;48.816;9.420;2023-04-05T04:42:51;99286.38;;;-2.58;80.95
48792;BME280;34587;48.816;9.420;2023-04-05T04:45:18;99281.66;;;-2.50;80.35
48792;BME280;34587;48.816;9.420;2023-04-05T04:47:44;99287.19;;;-2.59;80.38
48792;BME280;34587;48.816;9.420;2023-04-05T04:50:11;99277.25;;;-2.54;80.65
48792;BME280;34587;48.816;9.420;2023-04-05T04:52:38;99293.47;;;-2.51;80.61
48792;BME280;34587;48.816;9.420;2023-04-05T04:55:07;99291.34;;;-2.61;80.99
48792;BME280;34587;48.816;9.420;2023-04-05T04:57:33;99291.78;;;-2.50;80.67
48792;BME280;34587;48.816;9.420;2023-04-05T04:59:58;99287.78;;;-2.45;80.50
48792;BME280;34587;48.816;9.420;2023-04-05T05:02:24;99288.25;;;-2.54;80.47
48792;BME280;34587;48.816;9.420;2023-04-05T05:04:50;99294.53;;;-2.65;80.45
48792;BME280;34587;48.816;9.420;2023-04-05T05:07:16;99291.72;;;-2.71;80.91
48792;BME280;34587;48.816;9.420;2023-04-05T05:09:42;99285.03;;;-2.50;80.41
48792;BME280;34587;48.816;9.420;2023-04-05T05:12:07;99289.25;;;-2.50;80.19
48792;BME280;34587;48.816;9.420;2023-04-05T05:14:32;99289.25;;;-2.50;80.13
48792;BME280;34587;48.816;9.420;2023-04-05T05:16:58;99283.44;;;-2.48;80.01
48792;BME280;34587;48.816;9.420;2023-04-05T05:19:23;99285.72;;;-2.54;80.00
48792;BME280;34587;48.816;9.420;2023-04-05T05:21:49;99295.13;;;-2.51;80.35
48792;BME280;34587;48.816;9.420;2023-04-05T05:24:14;99297.47;;;-2.56;80.35
48792;BME280;34587;48.816;9.420;2023-04-05T05:26:40;99287.00;;;-2.43;79.84
48792;BME280;34587;48.816;9.420;2023-04-05T05:29:05;99293.84;;;-2.42;79.74
48792;BME280;34587;48.816;9.420;2023-04-05T05:31:31;99292.38;;;-2.37;79.09
48792;BME280;34587;48.816;9.420;2023-04-05T05:33:57;99294.47;;;-2.26;79.09
48792;BME280;34587;48.816;9.420;2023-04-05T05:36:23;99292.78;;;-2.05;78.84
48792;BME280;34587;48.816;9.420;2023-04-05T05:38:49;99285.78;;;-1.90;78.45
48792;BME280;34587;48.816;9.420;2023-04-05T05:41:15;99293.09;;;-1.76;77.69
48792;BME280;34587;48.816;9.420;2023-04-05T05:43:40;99291.94;;;-1.62;77.22
48792;BME280;34587;48.816;9.420;2023-04-05T05:46:05;99292.31;;;-1.53;76.62
48792;BME280;34587;48.816;9.420;2023-04-05T05:48:30;99285.50;;;-1.54;76.37
48792;BME280;34587;48.816;9.420;2023-04-05T05:50:57;99288.81;;;-1.33;76.03
48792;BME280;34587;48.816;9.420;2023-04-05T05:53:25;99294.38;;;-1.20;74.70
48792;BME280;34587;48.816;9.420;2023-04-05T05:55:51;99293.91;;;-1.10;74.39
48792;BME280;34587;48.816;9.420;2023-04-05T05:58:16;99288.81;;;-1.10;73.88
48792;BME280;34587;48.816;9.420;2023-04-05T06:00:41;99281.91;;;-0.90;73.51
48792;BME280;34587;48.816;9.420;2023-04-05T06:03:08;99283.41;;;-0.71;72.66
48792;BME280;34587;48.816;9.420;2023-04-05T06:05:33;99286.13;;;-0.41;71.80
48792;BME280;34587;48.816;9.420;2023-04-05T06:07:59;99283.94;;;-0.05;71.30
48792;BME280;34587;48.816;9.420;2023-04-05T06:10:25;99276.69;;;0.34;69.74
48792;BME280;34587;48.816;9.420;2023-04-05T06:12:50;99292.66;;;0.57;67.89
48792;BME280;34587;48.816;9.420;2023-04-05T06:15:15;99284.66;;;0.73;67.38
48792;BME280;34587;48.816;9.420;2023-04-05T06:17:41;99278.69;;;1.66;65.01
48792;BME280;34587;48.816;9.420;2023-04-05T06:20:08;99274.78;;;2.53;62.10
48792;BME280;34587;48.816;9.420;2023-04-05T06:22:35;99283.56;;;2.26;60.75
48792;BME280;34587;48.816;9.420;2023-04-05T06:25:00;99269.56;;;3.78;57.72
48792;BME280;34587;48.816;9.420;2023-04-05T06:27:26;99260.03;;;4.88;54.07
48792;BME280;34587;48.816;9.420;2023-04-05T06:29:51;99264.31;;;3.72;55.24
48792;BME280;34587;48.816;9.420;2023-04-05T06:32:16;99260.25;;;5.85;51.05
48792;BME280;34587;48.816;9.420;2023-04-05T06:34:42;99271.03;;;5.49;50.52
48792;BME280;34587;48.816;9.420;2023-04-05T06:37:09;99267.88;;;5.78;49.88
48792;BME280;34587;48.816;9.420;2023-04-05T06:39:34;99260.31;;;5.91;49.87
48792;BME280;34587;48.816;9.420;2023-04-05T06:42:01;99257.47;;;6.81;47.80
48792;BME280;34587;48.816;9.420;2023-04-05T06:44:26;99259.47;;;7.65;44.98
48792;BME280;34587;48.816;9.420;2023-04-05T06:46:51;99265.28;;;6.97;46.06
48792;BME280;34587;48.816;9.420;2023-04-05T06:49:16;99264.25;;;6.62;45.82
48792;BME280;34587;48.816;9.420;2023-04-05T06:51:42;99260.81;;;6.60;47.22
48792;BME280;34587;48.816;9.420;2023-04-05T06:54:07;99257.56;;;7.03;46.05
48792;BME280;34587;48.816;9.420;2023-04-05T06:56:32;99259.47;;;7.88;44.34
48792;BME280;34587;48.816;9.420;2023-04-05T06:58:58;99247.47;;;10.06;40.75
48792;BME280;34587;48.816;9.420;2023-04-05T07:01:23;99241.63;;;12.04;36.89
48792;BME280;34587;48.816;9.420;2023-04-05T07:03:50;99249.41;;;12.04;36.04
48792;BME280;34587;48.816;9.420;2023-04-05T07:06:15;99255.22;;;10.98;36.65
48792;BME280;34587;48.816;9.420;2023-04-05T07:08:40;99254.66;;;12.01;35.80
48792;BME280;34587;48.816;9.420;2023-04-05T07:11:06;99257.22;;;10.73;37.15
48792;BME280;34587;48.816;9.420;2023-04-05T07:13:31;99258.19;;;10.62;38.13
48792;BME280;34587;48.816;9.420;2023-04-05T07:16:00;99262.53;;;9.47;39.15
48792;BME280;34587;48.816;9.420;2023-04-05T07:18:26;99264.66;;;7.74;44.18
48792;BME280;34587;48.816;9.420;2023-04-05T07:20:55;99281.16;;;6.28;46.96
48792;BME280;34587;48.816;9.420;2023-04-05T07:23:24;99278.88;;;5.61;49.05
48792;BME280;34587;48.816;9.420;2023-04-05T07:25:50;99277.56;;;6.02;48.00
48792;BME280;34587;48.816;9.420;2023-04-05T07:28:15;99264.59;;;8.64;42.88
48792;BME280;34587;48.816;9.420;2023-04-05T07:30:40;99254.72;;;10.63;38.44
48792;BME280;34587;48.816;9.420;2023-04-05T07:33:06;99247.44;;;13.11;34.41
48792;BME280;34587;48.816;9.420;2023-04-05T07:35:31;99234.59;;;14.84;31.86
48792;BME280;34587;48.816;9.420;2023-04-05T07:37:56;99246.09;;;16.22;28.19
48792;BME280;34587;48.816;9.420;2023-04-05T07:40:22;99246.25;;;15.33;29.56
48792;BME280;34587;48.816;9.420;2023-04-05T07:42:47;99242.88;;;14.98;30.00
48792;BME280;34587;48.816;9.420;2023-04-05T07:45:12;99240.94;;;16.45;28.46
48792;BME280;34587;48.816;9.420;2023-04-05T07:47:37;99242.53;;;15.70;28.34
48792;BME280;34587;48.816;9.420;2023-04-05T07:50:03;99247.69;;;16.26;26.44
48792;BME280;34587;48.816;9.420;2023-04-05T07:52:28;99235.19;;;18.20;25.62
48792;BME280;34587;48.816;9.420;2023-04-05T07:54:54;99239.06;;;17.45;25.76
48792;BME280;34587;48.816;9.420;2023-04-05T07:57:20;99247.44;;;16.58;26.32
48792;BME280;34587;48.816;9.420;2023-04-05T07:59:47;99240.69;;;17.01;25.15
48792;BME280;34587;48.816;9.420;2023-04-05T08:02:15;99241.09;;;16.90;25.46
48792;BME280;34587;48.816;9.420;2023-04-05T08:04:40;99246.53;;;15.81;27.53
48792;BME280;34587;48.816;9.420;2023-04-05T08:07:05;99261.09;;;14.00;27.92
48792;BME280;34587;48.816;9.420;2023-04-05T08:09:31;99250.88;;;16.34;26.06
48792;BME280;34587;48.816;9.420;2023-04-05T08:11:56;99248.34;;;17.98;24.26
48792;BME280;34587;48.816;9.420;2023-04-05T08:14:22;99246.03;;;18.53;21.82
48792;BME280;34587;48.816;9.420;2023-04-05T08:16:47;99253.47;;;17.79;22.96
48792;BME280;34587;48.816;9.420;2023-04-05T08:19:14;99236.53;;;18.71;21.84
48792;BME280;34587;48.816;9.420;2023-04-05T08:21:40;99250.09;;;18.40;21.08
48792;BME280;34587;48.816;9.420;2023-04-05T08:24:05;99244.13;;;18.36;20.40
48792;BME280;34587;48.816;9.420;2023-04-05T08:26:30;99232.94;;;18.33;21.54
48792;BME280;34587;48.816;9.420;2023-04-05T08:28:56;99239.41;;;20.16;20.44
48792;BME280;34587;48.816;9.420;2023-04-05T08:31:21;99242.47;;;18.95;21.31
48792;BME280;34587;48.816;9.420;2023-04-05T08:33:46;99229.38;;;19.70;21.07
48792;BME280;34587;48.816;9.420;2023-04-05T08:36:12;99226.56;;;21.12;19.14
48792;BME280;34587;48.816;9.420;2023-04-05T08:38:37;99239.66;;;19.56;20.15
48792;BME280;34587;48.816;9.420;2023-04-05T08:41:07;99237.91;;;19.75;20.10
48792;BME280;34587;48.816;9.420;2023-04-05T08:43:54;99242.19;;;17.77;21.38
48792;BME280;34587;48.816;9.420;2023-04-05T08:46:21;99236.06;;;19.21;20.71
48792;BME280;34587;48.816;9.420;2023-04-05T08:48:46;99234.69;;;19.88;19.15
48792;BME280;34587;48.816;9.420;2023-04-05T08:51:12;99237.25;;;19.33;19.83
48792;BME280;34587;48.816;9.420;2023-04-05T08:53:37;99241.19;;;17.58;21.11
48792;BME280;34587;48.816;9.420;2023-04-05T08:56:03;99238.66;;;17.33;21.09
48792;BME280;34587;48.816;9.420;2023-04-05T08:58:30;99233.09;;;18.89;19.14
48792;BME280;34587;48.816;9.420;2023-04-05T09:00:56;99233.16;;;20.18;17.84
48792;BME280;34587;48.816;9.420;2023-04-05T09:03:24;99236.94;;;17.77;20.52
48792;BME280;34587;48.816;9.420;2023-04-05T09:05:51;99237.97;;;19.55;19.58
48792;BME280;34587;48.816;9.420;2023-04-05T09:08:18;99234.59;;;20.60;18.40
48792;BME280;34587;48.816;9.420;2023-04-05T09:10:45;99228.44;;;18.96;19.25
48792;BME280;34587;48.816;9.420;2023-04-05T09:13:12;99242.72;;;18.07;19.54
48792;BME280;34587;48.816;9.420;2023-04-05T09:15:38;99241.91;;;18.47;18.78
48792;BME280;34587;48.816;9.420;2023-04-05T09:18:04;99236.38;;;19.89;18.47
48792;BME280;34587;48.816;9.420;2023-04-05T09:20:30;99250.28;;;16.52;20.38
48792;BME280;34587;48.816;9.420;2023-04-05T09:22:56;99231.28;;;19.48;18.14
48792;BME280;34587;48.816;9.420;2023-04-05T09:27:57;99240.06;;;17.87;19.08
48792;BME280;34587;48.816;9.420;2023-04-05T09:30:23;99228.22;;;20.12;17.79
48792;BME280;34587;48.816;9.420;2023-04-05T09:32:53;99235.94;;;17.12;19.63
48792;BME280;34587;48.816;9.420;2023-04-05T09:35:23;99229.69;;;17.84;19.72
48792;BME280;34587;48.816;9.420;2023-04-05T09:38:03;99215.66;;;20.69;18.01
48792;BME280;34587;48.816;9.420;2023-04-05T09:40:48;99227.16;;;18.45;19.55
48792;BME280;34587;48.816;9.420;2023-04-05T09:43:39;99229.88;;;17.34;21.63
48792;BME280;34587;48.816;9.420;2023-04-05T09:46:05;99220.81;;;18.08;20.29
48792;BME280;34587;48.816;9.420;2023-04-05T09:48:49;99231.47;;;16.41;21.83
48792;BME280;34587;48.816;9.420;2023-04-05T09:51:16;99219.41;;;16.87;21.39
48792;BME280;34587;48.816;9.420;2023-04-05T09:54:01;99220.09;;;16.67;22.25
48792;BME280;34587;48.816;9.420;2023-04-05T09:56:30;99218.50;;;17.11;22.08
48792;BME280;34587;48.816;9.420;2023-04-05T09:59:08;99210.13;;;19.51;19.00
48792;BME280;34587;48.816;9.420;2023-04-05T10:01:37;99221.09;;;17.13;21.22
48792;BME280;34587;48.816;9.420;2023-04-05T10:04:03;99220.91;;;16.94;21.75
48792;BME280;34587;48.816;9.420;2023-04-05T10:06:40;99208.56;;;19.09;19.47
48792;BME280;34587;48.816;9.420;2023-04-05T10:09:07;99210.25;;;19.48;19.11
48792;BME280;34587;48.816;9.420;2023-04-05T10:11:33;99198.78;;;20.39;19.00
48792;BME280;34587;48.816;9.420;2023-04-05T10:14:01;99201.41;;;19.13;19.25
48792;BME280;34587;48.816;9.420;2023-04-05T10:16:29;99198.16;;;18.68;19.91
48792;BME280;34587;48.816;9.420;2023-04-05T10:18:56;99191.22;;;19.43;19.72
48792;BME280;34587;48.816;9.420;2023-04-05T10:21:22;99197.63;;;18.19;20.64
48792;BME280;34587;48.816;9.420;2023-04-05T10:24:00;99193.81;;;16.95;21.17
48792;BME280;34587;48.816;9.420;2023-04-05T10:26:39;99191.00;;;18.11;19.83
48792;BME280;34587;48.816;9.420;2023-04-05T10:29:11;99194.84;;;16.91;20.61
48792;BME280;34587;48.816;9.420;2023-04-05T10:31:49;99178.84;;;18.69;20.18
48792;BME280;34587;48.816;9.420;2023-04-05T10:34:41;99188.47;;;17.21;21.55
48792;BME280;34587;48.816;9.420;2023-04-05T10:37:20;99185.72;;;17.68;21.12
48792;BME280;34587;48.816;9.420;2023-04-05T10:39:49;99179.03;;;16.94;21.57
48792;BME280;34587;48.816;9.420;2023-04-05T10:42:26;99186.59;;;18.11;20.52
48792;BME280;34587;48.816;9.420;2023-04-05T10:44:57;99181.34;;;17.91;20.50
48792;BME280;34587;48.816;9.420;2023-04-05T10:47:27;99182.34;;;18.70;19.89
48792;BME280;34587;48.816;9.420;2023-04-05T10:49:53;99181.56;;;19.62;19.05
48792;BME280;34587;48.816;9.420;2023-04-05T10:52:21;99181.72;;;18.84;18.70
48792;BME280;34587;48.816;9.420;2023-04-05T10:54:47;99180.44;;;19.49;18.48
48792;BME280;34587;48.816;9.420;2023-04-05T10:57:13;99176.59;;;20.10;19.12
48792;BME280;34587;48.816;9.420;2023-04-05T10:59:44;99182.44;;;19.44;18.05
48792;BME280;34587;48.816;9.420;2023-04-05T11:02:10;99172.69;;;19.82;18.11
48792;BME280;34587;48.816;9.420;2023-04-05T11:04:36;99170.63;;;21.70;17.58
48792;BME280;34587;48.816;9.420;2023-04-05T11:07:17;99170.34;;;20.47;18.57
48792;BME280;34587;48.816;9.420;2023-04-05T11:09:55;99171.53;;;19.15;18.84
48792;BME280;34587;48.816;9.420;2023-04-05T11:18:19;99148.44;;;22.77;16.68
48792;BME280;34587;48.816;9.420;2023-04-05T11:20:52;99163.06;;;20.17;17.69
48792;BME280;34587;48.816;9.420;2023-04-05T11:23:22;99156.84;;;20.36;17.97
48792;BME280;34587;48.816;9.420;2023-04-05T11:25:50;99151.06;;;19.03;19.10
48792;BME280;34587;48.816;9.420;2023-04-05T11:28:36;99154.81;;;18.79;18.07
48792;BME280;34587;48.816;9.420;2023-04-05T11:31:18;99140.47;;;20.13;17.75
48792;BME280;34587;48.816;9.420;2023-04-05T11:36:09;99132.38;;;22.80;16.05
48792;BME280;34587;48.816;9.420;2023-04-05T11:38:35;99147.81;;;19.89;17.35
48792;BME280;34587;48.816;9.420;2023-04-05T11:41:13;99138.31;;;18.77;19.03
48792;BME280;34587;48.816;9.420;2023-04-05T11:43:45;99147.72;;;17.36;20.19
48792;BME280;34587;48.816;9.420;2023-04-05T11:46:16;99135.97;;;19.44;19.91
48792;BME280;34587;48.816;9.420;2023-04-05T11:48:42;99133.09;;;18.15;19.23
48792;BME280;34587;48.816;9.420;2023-04-05T11:51:09;99124.38;;;18.74;18.95
48792;BME280;34587;48.816;9.420;2023-04-05T11:53:35;99132.59;;;18.28;19.72
48792;BME280;34587;48.816;9.420;2023-04-05T11:56:08;99123.97;;;18.84;19.68
48792;BME280;34587;48.816;9.420;2023-04-05T11:58:36;99129.25;;;19.75;18.78
48792;BME280;34587;48.816;9.420;2023-04-05T12:01:04;99121.41;;;18.22;19.78
48792;BME280;34587;48.816;9.420;2023-04-05T12:03:34;99125.50;;;18.30;18.52
48792;BME280;34587;48.816;9.420;2023-04-05T12:06:02;99124.72;;;17.21;19.75
48792;BME280;34587;48.816;9.420;2023-04-05T12:08:44;99123.44;;;17.53;20.02
48792;BME280;34587;48.816;9.420;2023-04-05T12:11:15;99118.78;;;17.17;20.79
48792;BME280;34587;48.816;9.420;2023-04-05T12:13:41;99121.28;;;14.32;22.45
48792;BME280;34587;48.816;9.420;2023-04-05T12:16:07;99124.19;;;13.16;24.35
48792;BME280;34587;48.816;9.420;2023-04-05T12:18:36;99114.13;;;12.17;26.33
48792;BME280;34587;48.816;9.420;2023-04-05T12:21:06;99126.75;;;11.90;26.73
48792;BME280;34587;48.816;9.420;2023-04-05T12:23:32;99108.69;;;12.72;27.32
48792;BME280;34587;48.816;9.420;2023-04-05T12:25:57;99108.38;;;12.44;26.35
48792;BME280;34587;48.816;9.420;2023-04-05T12:28:23;99113.63;;;12.41;27.15
48792;BME280;34587;48.816;9.420;2023-04-05T12:30:54;99102.81;;;12.63;26.96
48792;BME280;34587;48.816;9.420;2023-04-05T12:35:53;99100.13;;;12.24;26.67
48792;BME280;34587;48.816;9.420;2023-04-05T12:38:19;99098.66;;;12.54;26.33
48792;BME280;34587;48.816;9.420;2023-04-05T12:40:44;99087.28;;;12.98;27.20
48792;BME280;34587;48.816;9.420;2023-04-05T12:43:10;99095.47;;;13.19;27.64
48792;BME280;34587;48.816;9.420;2023-04-05T12:45:35;99092.84;;;13.22;26.20
48792;BME280;34587;48.816;9.420;2023-04-05T12:48:23;99091.78;;;13.30;25.80
48792;BME280;34587;48.816;9.420;2023-04-05T12:50:50;99081.91;;;13.43;26.12
48792;BME280;34587;48.816;9.420;2023-04-05T12:53:23;99073.75;;;13.91;26.19
48792;BME280;34587;48.816;9.420;2023-04-05T12:55:53;99063.91;;;13.70;26.36
48792;BME280;34587;48.816;9.420;2023-04-05T12:58:20;99074.63;;;12.83;26.80
48792;BME280;34587;48.816;9.420;2023-04-05T13:00:46;99063.69;;;12.27;27.78
48792;BME280;34587;48.816;9.420;2023-04-05T13:03:17;99053.19;;;12.33;27.78
48792;BME280;34587;48.816;9.420;2023-04-05T13:05:44;99063.31;;;12.45;28.25
48792;BME280;34587;48.816;9.420;2023-04-05T13:08:09;99058.66;;;12.18;29.39
48792;BME280;34587;48.816;9.420;2023-04-05T13:10:35;99059.81;;;12.46;28.34
48792;BME280;34587;48.816;9.420;2023-04-05T13:13:00;99056.41;;;12.44;27.79
48792;BME280;34587;48.816;9.420;2023-04-05T13:15:25;99052.13;;;12.80;28.21
48792;BME280;34587;48.816;9.420;2023-04-05T13:17:51;99050.88;;;12.59;28.30
48792;BME280;34587;48.816;9.420;2023-04-05T13:20:19;99051.78;;;12.97;28.03
48792;BME280;34587;48.816;9.420;2023-04-05T13:22:45;99050.38;;;12.81;26.90
48792;BME280;34587;48.816;9.420;2023-04-05T13:25:11;99038.56;;;12.27;26.66
48792;BME280;34587;48.816;9.420;2023-04-05T13:27:36;99045.28;;;12.78;28.06
48792;BME280;34587;48.816;9.420;2023-04-05T13:30:02;99036.28;;;12.14;28.25
48792;BME280;34587;48.816;9.420;2023-04-05T13:32:28;99036.00;;;13.03;27.37
48792;BME280;34587;48.816;9.420;2023-04-05T13:34:53;99036.53;;;12.82;27.59
48792;BME280;34587;48.816;9.420;2023-04-05T13:37:18;99032.06;;;12.48;26.80
48792;BME280;34587;48.816;9.420;2023-04-05T13:39:44;99026.66;;;12.96;27.54
48792;BME280;34587;48.816;9.420;2023-04-05T13:42:09;99026.69;;;13.32;26.95
48792;BME280;34587;48.816;9.420;2023-04-05T13:44:35;99033.28;;;12.32;26.67
48792;BME280;34587;48.816;9.420;2023-04-05T13:47:02;99025.66;;;12.23;27.94
48792;BME280;34587;48.816;9.420;2023-04-05T13:49:27;99029.75;;;12.75;28.10
48792;BME280;34587;48.816;9.420;2023-04-05T13:51:52;99020.94;;;12.42;27.60
48792;BME280;34587;48.816;9.420;2023-04-05T13:54:18;99017.22;;;12.53;27.59
48792;BME280;34587;48.816;9.420;2023-04-05T13:56:43;99025.19;;;12.46;28.18
48792;BME280;34587;48.816;9.420;2023-04-05T13:59:09;99019.56;;;12.25;27.97
48792;BME280;34587;48.816;9.420;2023-04-05T14:01:35;99013.00;;;12.49;27.77
48792;BME280;34587;48.816;9.420;2023-04-05T14:04:01;99011.63;;;12.72;28.18
48792;BME280;34587;48.816;9.420;2023-04-05T14:06:26;99007.78;;;12.49;27.48
48792;BME280;34587;48.816;9.420;2023-04-05T14:08:52;99006.81;;;12.13;28.15
48792;BME280;34587;48.816;9.420;2023-04-05T14:11:22;99008.97;;;11.94;27.98
48792;BME280;34587;48.816;9.420;2023-04-05T14:13:49;99009.31;;;11.73;28.12
48792;BME280;34587;48.816;9.420;2023-04-05T14:16:15;99006.69;;;11.74;29.55
48792;BME280;34587;48.816;9.420;2023-04-05T14:18:40;99004.25;;;12.53;28.36
48792;BME280;34587;48.816;9.420;2023-04-05T14:21:06;99009.59;;;11.57;29.57
48792;BME280;34587;48.816;9.420;2023-04-05T14:23:31;99005.09;;;12.14;29.17
48792;BME280;34587;48.816;9.420;2023-04-05T14:25:56;98999.44;;;11.45;29.90
48792;BME280;34587;48.816;9.420;2023-04-05T14:28:22;98994.19;;;11.96;29.10
48792;BME280;34587;48.816;9.420;2023-04-05T14:30:48;98983.00;;;11.94;29.97
48792;BME280;34587;48.816;9.420;2023-04-05T14:33:13;98994.50;;;11.78;29.63
48792;BME280;34587;48.816;9.420;2023-04-05T14:35:40;98989.47;;;11.70;29.33
48792;BME280;34587;48.816;9.420;2023-04-05T14:38:06;98989.81;;;11.98;28.97
48792;BME280;34587;48.816;9.420;2023-04-05T14:40:31;98990.28;;;12.57;28.97
48792;BME280;34587;48.816;9.420;2023-04-05T14:42:56;98986.88;;;12.15;29.38
48792;BME280;34587;48.816;9.420;2023-04-05T14:45:22;98987.78;;;12.53;29.53
48792;BME280;34587;48.816;9.420;2023-04-05T14:47:51;98977.56;;;12.45;28.70
48792;BME280;34587;48.816;9.420;2023-04-05T14:50:16;98984.91;;;11.83;29.29
48792;BME280;34587;48.816;9.420;2023-04-05T14:52:41;98980.22;;;11.55;30.21
48792;BME280;34587;48.816;9.420;2023-04-05T14:55:07;98979.50;;;12.35;29.13
48792;BME280;34587;48.816;9.420;2023-04-05T14:57:33;98984.00;;;12.29;29.16
48792;BME280;34587;48.816;9.420;2023-04-05T14:59:58;98971.16;;;11.78;28.23
48792;BME280;34587;48.816;9.420;2023-04-05T15:02:23;98974.53;;;11.83;28.76
48792;BME280;34587;48.816;9.420;2023-04-05T15:04:49;98967.75;;;12.18;28.64
48792;BME280;34587;48.816;9.420;2023-04-05T15:07:14;98972.38;;;12.03;29.75
48792;BME280;34587;48.816;9.420;2023-04-05T15:09:40;98971.41;;;12.49;28.58
48792;BME280;34587;48.816;9.420;2023-04-05T15:12:05;98972.78;;;11.85;28.59
48792;BME280;34587;48.816;9.420;2023-04-05T15:14:31;98971.63;;;11.53;29.19
48792;BME280;34587;48.816;9.420;2023-04-05T15:16:56;98960.44;;;11.96;28.97
48792;BME280;34587;48.816;9.420;2023-04-05T15:19:21;98963.59;;;12.11;28.77
48792;BME280;34587;48.816;9.420;2023-04-05T15:21:47;98961.81;;;12.13;28.70
48792;BME280;34587;48.816;9.420;2023-04-05T15:24:12;98967.44;;;11.46;28.49
48792;BME280;34587;48.816;9.420;2023-04-05T15:26:37;98959.63;;;11.93;28.97
48792;BME280;34587;48.816;9.420;2023-04-05T15:29:04;98964.44;;;12.11;29.50
48792;BME280;34587;48.816;9.420;2023-04-05T15:31:32;98961.38;;;11.92;29.61
48792;BME280;34587;48.816;9.420;2023-04-05T15:33:58;98967.47;;;11.91;29.08
48792;BME280;34587;48.816;9.420;2023-04-05T15:36:23;98956.38;;;11.35;29.92
48792;BME280;34587;48.816;9.420;2023-04-05T15:38:52;98960.84;;;11.75;30.37
48792;BME280;34587;48.816;9.420;2023-04-05T15:41:17;98949.91;;;12.02;29.00
48792;BME280;34587;48.816;9.420;2023-04-05T15:43:42;98974.91;;;11.63;30.38
48792;BME280;34587;48.816;9.420;2023-04-05T15:46:08;98965.38;;;11.16;30.68
48792;BME280;34587;48.816;9.420;2023-04-05T15:48:33;98971.50;;;11.59;29.84
48792;BME280;34587;48.816;9.420;2023-04-05T15:50:59;98967.25;;;11.55;29.34
48792;BME280;34587;48.816;9.420;2023-04-05T15:53:24;98965.19;;;11.28;30.51
48792;BME280;34587;48.816;9.420;2023-04-05T15:55:49;98965.44;;;11.13;31.89
48792;BME280;34587;48.816;9.420;2023-04-05T15:58:15;98968.44;;;10.88;32.14
48792;BME280;34587;48.816;9.420;2023-04-05T16:00:41;98968.28;;;10.97;33.00
48792;BME280;34587;48.816;9.420;2023-04-05T16:03:06;98967.94;;;11.19;32.15
48792;BME280;34587;48.816;9.420;2023-04-05T16:05:31;98965.13;;;10.80;32.26
48792;BME280;34587;48.816;9.420;2023-04-05T16:07:57;98963.19;;;10.93;32.65
48792;BME280;34587;48.816;9.420;2023-04-05T16:10:24;98960.25;;;10.60;32.82
48792;BME280;34587;48.816;9.420;2023-04-05T16:12:51;98957.34;;;10.80;32.73
48792;BME280;34587;48.816;9.420;2023-04-05T16:15:17;98960.69;;;10.88;32.59
48792;BME280;34587;48.816;9.420;2023-04-05T16:17:43;98961.34;;;10.45;33.26
48792;BME280;34587;48.816;9.420;2023-04-05T16:20:08;98963.50;;;10.10;33.78
48792;BME280;34587;48.816;9.420;2023-04-05T16:22:34;98959.56;;;10.47;33.72
48792;BME280;34587;48.816;9.420;2023-04-05T16:24:59;98963.03;;;10.46;33.78
48792;BME280;34587;48.816;9.420;2023-04-05T16:27:25;98953.28;;;10.64;32.74
48792;BME280;34587;48.816;9.420;2023-04-05T16:29:50;98970.94;;;10.37;33.57
48792;BME280;34587;48.816;9.420;2023-04-05T16:32:16;98964.72;;;9.83;33.92
48792;BME280;34587;48.816;9.420;2023-04-05T16:34:41;98969.59;;;10.05;34.05
48792;BME280;34587;48.816;9.420;2023-04-05T16:37:06;98974.13;;;9.91;33.80
48792;BME280;34587;48.816;9.420;2023-04-05T16:39:32;98971.56;;;9.85;34.19
48792;BME280;34587;48.816;9.420;2023-04-05T16:41:57;98968.06;;;9.89;35.42
48792;BME280;34587;48.816;9.420;2023-04-05T16:44:22;98975.31;;;9.60;35.84
48792;BME280;34587;48.816;9.420;2023-04-05T16:46:48;98973.38;;;9.82;35.41
48792;BME280;34587;48.816;9.420;2023-04-05T16:49:13;98976.41;;;9.37;36.45
48792;BME280;34587;48.816;9.420;2023-04-05T16:51:40;98975.69;;;9.24;36.70
48792;BME280;34587;48.816;9.420;2023-04-05T16:54:05;98983.81;;;8.79;36.51
48792;BME280;34587;48.816;9.420;2023-04-05T16:56:31;98986.25;;;8.97;36.72
48792;BME280;34587;48.816;9.420;2023-04-05T16:58:56;98977.78;;;8.81;36.56
48792;BME280;34587;48.816;9.420;2023-04-05T17:01:22;98981.94;;;8.97;36.61
48792;BME280;34587;48.816;9.420;2023-04-05T17:03:47;98977.69;;;8.95;38.28
48792;BME280;34587;48.816;9.420;2023-04-05T17:06:13;98978.56;;;8.92;37.43
48792;BME280;34587;48.816;9.420;2023-04-05T17:08:38;98975.22;;;8.78;37.35
48792;BME280;34587;48.816;9.420;2023-04-05T17:11:04;98977.84;;;8.72;36.93
48792;BME280;34587;48.816;9.420;2023-04-05T17:13:30;98977.09;;;8.55;37.50
48792;BME280;34587;48.816;9.420;2023-04-05T17:15:55;98988.25;;;8.63;37.44
48792;BME280;34587;48.816;9.420;2023-04-05T17:18:21;98986.53;;;8.60;37.94
48792;BME280;34587;48.816;9.420;2023-04-05T17:20:46;98984.03;;;8.51;37.83
48792;BME280;34587;48.816;9.420;2023-04-05T17:23:11;98978.06;;;8.38;38.08
48792;BME280;34587;48.816;9.420;2023-04-05T17:25:37;98987.53;;;8.33;38.07
48792;BME280;34587;48.816;9.420;2023-04-05T17:28:02;98986.75;;;8.19;38.48
48792;BME280;34587;48.816;9.420;2023-04-05T17:30:27;98988.47;;;8.20;38.79
48792;BME280;34587;48.816;9.420;2023-04-05T17:32:54;98985.09;;;8.04;39.39